Hovedside
METAR-TAF:

METAR-TAF

Lufthavner :

Bangkok, Thailand

breddegrad: 13-54-45N, lengdegrad: 100-36-24E, høyde over havet: 4 m

Gjeldene værobservasjon

Denne rapporten ble laget for 20 minutter siden, klokken 15:30 UTC
Vind 4 kt fra Øst
Temperatur 28°C
Luftfuktighet 62%
Trykk 1013 hPa
Sikt 10 km eller mer
Få skyer i en høyde av 3000 ft

METAR: VTBD 201530Z 09004KT 9999 FEW030 28/20 Q1013 NOSIG

Tid: 22:50 (15:50 UTC)

Varsel

Denne rapporten ble laget for 4 timer og 50 minutter siden, klokken 11:00 UTC
Varsel gyldig fra 20. klokken 12 UTC til 21. klokken 18 UTC
Vind 8 kt fra Øst
Sikt: 9000 m
Få skyer i en høyde av 2500 ft

TAF: VTBD 201100Z 2012/2118 08008KT 9000 FEW025

Værobservasjoner og værvarsel for over 4000 flyplasser (METAR- og TAF-rapporter).

Tilgjengelige stasjoner er representert av de røde og gule prikkene på kartet.

Hold musepekeren over prikken for å se navnet på stasjonen.

Klikk så for å se værobservasjoner og -varsler.

For å forandre kartet kan du klikke på den grønne knappen med svart kryss for å zoome inn, på den grønne knappen med strek for å zoome ut, eller på de grønne pilene for å se tilstøtende kart.


METAR-TAF: